sensor_id;sensor_type;location;lat;lon;timestamp;P1;durP1;ratioP1;P2;durP2;ratioP2
39882;SDS011;55824;52.220;21.040;2023-03-21T00:01:09;7.22;;;5.10;;
39882;SDS011;55824;52.220;21.040;2023-03-21T00:03:36;7.22;;;4.97;;
39882;SDS011;55824;52.220;21.040;2023-03-21T00:06:06;6.90;;;5.10;;
39882;SDS011;55824;52.220;21.040;2023-03-21T00:08:32;7.70;;;4.60;;
39882;SDS011;55824;52.220;21.040;2023-03-21T00:11:03;7.30;;;4.60;;
39882;SDS011;55824;52.220;21.040;2023-03-21T00:13:30;6.15;;;4.50;;
39882;SDS011;55824;52.220;21.040;2023-03-21T00:16:06;6.53;;;5.18;;
39882;SDS011;55824;52.220;21.040;2023-03-21T00:18:33;6.70;;;4.93;;
39882;SDS011;55824;52.220;21.040;2023-03-21T00:21:06;6.75;;;5.47;;
39882;SDS011;55824;52.220;21.040;2023-03-21T00:23:33;8.25;;;4.97;;
39882;SDS011;55824;52.220;21.040;2023-03-21T00:25:59;6.40;;;4.85;;
39882;SDS011;55824;52.220;21.040;2023-03-21T00:28:25;6.75;;;5.05;;
39882;SDS011;55824;52.220;21.040;2023-03-21T00:31:00;7.25;;;5.57;;
39882;SDS011;55824;52.220;21.040;2023-03-21T00:33:26;9.32;;;5.60;;
39882;SDS011;55824;52.220;21.040;2023-03-21T00:35:54;7.70;;;4.82;;
39882;SDS011;55824;52.220;21.040;2023-03-21T00:38:21;6.20;;;4.53;;
39882;SDS011;55824;52.220;21.040;2023-03-21T00:40:47;6.65;;;4.68;;
39882;SDS011;55824;52.220;21.040;2023-03-21T00:43:13;6.05;;;4.90;;
39882;SDS011;55824;52.220;21.040;2023-03-21T00:45:43;7.40;;;5.43;;
39882;SDS011;55824;52.220;21.040;2023-03-21T00:48:10;7.60;;;5.05;;
39882;SDS011;55824;52.220;21.040;2023-03-21T00:50:37;6.35;;;4.55;;
39882;SDS011;55824;52.220;21.040;2023-03-21T00:53:03;6.07;;;4.40;;
39882;SDS011;55824;52.220;21.040;2023-03-21T00:55:29;5.80;;;4.60;;
39882;SDS011;55824;52.220;21.040;2023-03-21T00:57:55;7.78;;;5.28;;
39882;SDS011;55824;52.220;21.040;2023-03-21T01:00:21;6.82;;;4.90;;
39882;SDS011;55824;52.220;21.040;2023-03-21T01:02:47;6.78;;;4.78;;
39882;SDS011;55824;52.220;21.040;2023-03-21T01:08:09;6.20;;;4.57;;
39882;SDS011;55824;52.220;21.040;2023-03-21T01:10:40;6.28;;;4.75;;
39882;SDS011;55824;52.220;21.040;2023-03-21T01:13:06;6.45;;;4.80;;
39882;SDS011;55824;52.220;21.040;2023-03-21T01:15:32;6.40;;;4.32;;
39882;SDS011;55824;52.220;21.040;2023-03-21T01:17:59;6.18;;;4.50;;
39882;SDS011;55824;52.220;21.040;2023-03-21T01:20:25;5.32;;;4.28;;
39882;SDS011;55824;52.220;21.040;2023-03-21T01:22:51;6.60;;;4.78;;
39882;SDS011;55824;52.220;21.040;2023-03-21T01:25:17;7.85;;;5.70;;
39882;SDS011;55824;52.220;21.040;2023-03-21T01:27:43;7.18;;;4.93;;
39882;SDS011;55824;52.220;21.040;2023-03-21T01:30:09;6.50;;;5.03;;
39882;SDS011;55824;52.220;21.040;2023-03-21T01:32:35;7.45;;;5.18;;
39882;SDS011;55824;52.220;21.040;2023-03-21T01:35:01;6.70;;;4.93;;
39882;SDS011;55824;52.220;21.040;2023-03-21T01:37:28;6.07;;;4.55;;
39882;SDS011;55824;52.220;21.040;2023-03-21T01:39:54;6.82;;;4.93;;
39882;SDS011;55824;52.220;21.040;2023-03-21T01:42:20;7.20;;;5.20;;
39882;SDS011;55824;52.220;21.040;2023-03-21T01:47:18;7.03;;;5.18;;
39882;SDS011;55824;52.220;21.040;2023-03-21T01:49:46;6.25;;;4.50;;
39882;SDS011;55824;52.220;21.040;2023-03-21T01:52:15;7.93;;;5.33;;
39882;SDS011;55824;52.220;21.040;2023-03-21T01:54:42;6.25;;;4.82;;
39882;SDS011;55824;52.220;21.040;2023-03-21T01:57:11;5.78;;;4.55;;
39882;SDS011;55824;52.220;21.040;2023-03-21T01:59:45;6.23;;;4.67;;
39882;SDS011;55824;52.220;21.040;2023-03-21T02:02:18;6.10;;;4.53;;
39882;SDS011;55824;52.220;21.040;2023-03-21T02:04:47;6.47;;;4.90;;
39882;SDS011;55824;52.220;21.040;2023-03-21T02:07:29;5.60;;;4.43;;
39882;SDS011;55824;52.220;21.040;2023-03-21T02:09:56;5.00;;;4.18;;
39882;SDS011;55824;52.220;21.040;2023-03-21T02:12:22;5.82;;;4.32;;
39882;SDS011;55824;52.220;21.040;2023-03-21T02:14:49;5.97;;;4.40;;
39882;SDS011;55824;52.220;21.040;2023-03-21T02:17:32;5.78;;;4.18;;
39882;SDS011;55824;52.220;21.040;2023-03-21T02:20:05;5.82;;;4.00;;
39882;SDS011;55824;52.220;21.040;2023-03-21T02:22:49;6.40;;;4.30;;
39882;SDS011;55824;52.220;21.040;2023-03-21T02:28:27;5.10;;;4.13;;
39882;SDS011;55824;52.220;21.040;2023-03-21T02:31:20;5.25;;;3.63;;
39882;SDS011;55824;52.220;21.040;2023-03-21T02:38:41;5.93;;;4.38;;
39882;SDS011;55824;52.220;21.040;2023-03-21T02:41:14;5.90;;;4.55;;
39882;SDS011;55824;52.220;21.040;2023-03-21T02:43:46;5.72;;;4.07;;
39882;SDS011;55824;52.220;21.040;2023-03-21T02:46:16;7.00;;;4.35;;
39882;SDS011;55824;52.220;21.040;2023-03-21T02:51:28;5.72;;;3.95;;
39882;SDS011;55824;52.220;21.040;2023-03-21T02:53:57;5.95;;;4.22;;
39882;SDS011;55824;52.220;21.040;2023-03-21T02:56:26;6.80;;;4.95;;
39882;SDS011;55824;52.220;21.040;2023-03-21T02:58:52;5.40;;;3.83;;
39882;SDS011;55824;52.220;21.040;2023-03-21T03:01:18;6.53;;;4.13;;
39882;SDS011;55824;52.220;21.040;2023-03-21T03:03:44;7.30;;;4.40;;
39882;SDS011;55824;52.220;21.040;2023-03-21T03:06:25;5.47;;;4.63;;
39882;SDS011;55824;52.220;21.040;2023-03-21T03:08:59;5.88;;;4.05;;
39882;SDS011;55824;52.220;21.040;2023-03-21T03:11:31;6.35;;;4.32;;
39882;SDS011;55824;52.220;21.040;2023-03-21T03:16:30;5.53;;;3.88;;
39882;SDS011;55824;52.220;21.040;2023-03-21T03:19:01;5.35;;;4.50;;
39882;SDS011;55824;52.220;21.040;2023-03-21T03:26:50;5.53;;;4.28;;
39882;SDS011;55824;52.220;21.040;2023-03-21T03:29:19;5.00;;;4.00;;
39882;SDS011;55824;52.220;21.040;2023-03-21T03:31:47;5.72;;;3.95;;
39882;SDS011;55824;52.220;21.040;2023-03-21T03:34:15;5.85;;;4.03;;
39882;SDS011;55824;52.220;21.040;2023-03-21T03:36:45;5.15;;;3.80;;
39882;SDS011;55824;52.220;21.040;2023-03-21T03:39:15;5.57;;;4.32;;
39882;SDS011;55824;52.220;21.040;2023-03-21T03:41:46;6.10;;;4.22;;
39882;SDS011;55824;52.220;21.040;2023-03-21T03:44:13;5.95;;;4.13;;
39882;SDS011;55824;52.220;21.040;2023-03-21T03:46:46;5.60;;;3.90;;
39882;SDS011;55824;52.220;21.040;2023-03-21T03:49:18;5.05;;;3.92;;
39882;SDS011;55824;52.220;21.040;2023-03-21T03:51:49;6.45;;;4.38;;
39882;SDS011;55824;52.220;21.040;2023-03-21T03:54:18;5.35;;;3.92;;
39882;SDS011;55824;52.220;21.040;2023-03-21T03:56:45;6.10;;;4.63;;
39882;SDS011;55824;52.220;21.040;2023-03-21T03:59:11;6.65;;;4.22;;
39882;SDS011;55824;52.220;21.040;2023-03-21T04:01:43;6.85;;;3.78;;
39882;SDS011;55824;52.220;21.040;2023-03-21T04:04:09;5.00;;;3.45;;
39882;SDS011;55824;52.220;21.040;2023-03-21T04:06:35;6.30;;;4.32;;
39882;SDS011;55824;52.220;21.040;2023-03-21T04:09:02;4.85;;;3.80;;
39882;SDS011;55824;52.220;21.040;2023-03-21T04:11:29;6.07;;;3.72;;
39882;SDS011;55824;52.220;21.040;2023-03-21T04:13:55;5.80;;;4.03;;
39882;SDS011;55824;52.220;21.040;2023-03-21T04:16:21;5.80;;;4.30;;
39882;SDS011;55824;52.220;21.040;2023-03-21T04:18:50;5.15;;;3.85;;
39882;SDS011;55824;52.220;21.040;2023-03-21T04:21:16;5.50;;;4.00;;
39882;SDS011;55824;52.220;21.040;2023-03-21T04:23:42;5.63;;;3.97;;
39882;SDS011;55824;52.220;21.040;2023-03-21T04:26:08;5.43;;;4.03;;
39882;SDS011;55824;52.220;21.040;2023-03-21T04:28:34;5.20;;;3.53;;
39882;SDS011;55824;52.220;21.040;2023-03-21T04:31:01;5.70;;;3.72;;
39882;SDS011;55824;52.220;21.040;2023-03-21T04:33:27;4.82;;;3.47;;
39882;SDS011;55824;52.220;21.040;2023-03-21T04:35:53;5.85;;;3.40;;
39882;SDS011;55824;52.220;21.040;2023-03-21T04:38:25;4.50;;;3.72;;
39882;SDS011;55824;52.220;21.040;2023-03-21T04:40:55;4.45;;;3.50;;
39882;SDS011;55824;52.220;21.040;2023-03-21T04:43:21;5.10;;;3.75;;
39882;SDS011;55824;52.220;21.040;2023-03-21T04:45:48;4.38;;;3.47;;
39882;SDS011;55824;52.220;21.040;2023-03-21T04:48:14;5.35;;;3.35;;
39882;SDS011;55824;52.220;21.040;2023-03-21T04:50:42;5.13;;;3.72;;
39882;SDS011;55824;52.220;21.040;2023-03-21T04:53:08;5.60;;;3.20;;
39882;SDS011;55824;52.220;21.040;2023-03-21T04:55:34;4.90;;;3.40;;
39882;SDS011;55824;52.220;21.040;2023-03-21T04:58:01;4.35;;;3.50;;
39882;SDS011;55824;52.220;21.040;2023-03-21T05:00:27;4.47;;;3.55;;
39882;SDS011;55824;52.220;21.040;2023-03-21T05:02:53;4.45;;;3.53;;
39882;SDS011;55824;52.220;21.040;2023-03-21T05:05:19;4.75;;;3.83;;
39882;SDS011;55824;52.220;21.040;2023-03-21T05:07:45;5.32;;;3.92;;
39882;SDS011;55824;52.220;21.040;2023-03-21T05:10:11;3.78;;;3.22;;
39882;SDS011;55824;52.220;21.040;2023-03-21T05:12:37;4.25;;;3.42;;
39882;SDS011;55824;52.220;21.040;2023-03-21T05:15:03;4.72;;;3.25;;
39882;SDS011;55824;52.220;21.040;2023-03-21T05:17:29;4.72;;;3.55;;
39882;SDS011;55824;52.220;21.040;2023-03-21T05:19:55;5.57;;;3.88;;
39882;SDS011;55824;52.220;21.040;2023-03-21T05:22:22;5.65;;;3.55;;
39882;SDS011;55824;52.220;21.040;2023-03-21T05:24:50;5.22;;;3.40;;
39882;SDS011;55824;52.220;21.040;2023-03-21T05:27:19;4.32;;;3.30;;
39882;SDS011;55824;52.220;21.040;2023-03-21T05:29:58;4.32;;;3.33;;
39882;SDS011;55824;52.220;21.040;2023-03-21T05:32:25;4.22;;;3.28;;
39882;SDS011;55824;52.220;21.040;2023-03-21T05:34:51;3.75;;;2.95;;
39882;SDS011;55824;52.220;21.040;2023-03-21T05:37:17;4.25;;;3.10;;
39882;SDS011;55824;52.220;21.040;2023-03-21T05:39:42;4.68;;;3.25;;
39882;SDS011;55824;52.220;21.040;2023-03-21T05:42:08;4.63;;;3.40;;
39882;SDS011;55824;52.220;21.040;2023-03-21T05:44:34;4.18;;;2.92;;
39882;SDS011;55824;52.220;21.040;2023-03-21T05:47:01;4.88;;;3.20;;
39882;SDS011;55824;52.220;21.040;2023-03-21T05:49:30;3.13;;;2.40;;
39882;SDS011;55824;52.220;21.040;2023-03-21T05:51:56;3.97;;;2.78;;
39882;SDS011;55824;52.220;21.040;2023-03-21T05:54:22;4.20;;;2.92;;
39882;SDS011;55824;52.220;21.040;2023-03-21T05:56:48;4.32;;;2.95;;
39882;SDS011;55824;52.220;21.040;2023-03-21T05:59:14;4.07;;;2.97;;
39882;SDS011;55824;52.220;21.040;2023-03-21T06:01:40;4.35;;;3.03;;
39882;SDS011;55824;52.220;21.040;2023-03-21T06:04:06;4.07;;;2.80;;
39882;SDS011;55824;52.220;21.040;2023-03-21T06:06:32;4.70;;;3.13;;
39882;SDS011;55824;52.220;21.040;2023-03-21T06:08:59;4.13;;;3.03;;
39882;SDS011;55824;52.220;21.040;2023-03-21T06:11:25;4.20;;;2.75;;
39882;SDS011;55824;52.220;21.040;2023-03-21T06:13:53;3.40;;;2.95;;
39882;SDS011;55824;52.220;21.040;2023-03-21T06:16:19;3.95;;;3.00;;
39882;SDS011;55824;52.220;21.040;2023-03-21T06:18:45;3.75;;;2.95;;
39882;SDS011;55824;52.220;21.040;2023-03-21T06:21:11;3.70;;;2.72;;
39882;SDS011;55824;52.220;21.040;2023-03-21T06:23:37;3.97;;;2.92;;
39882;SDS011;55824;52.220;21.040;2023-03-21T06:26:03;3.90;;;2.90;;
39882;SDS011;55824;52.220;21.040;2023-03-21T06:28:29;4.13;;;2.70;;
39882;SDS011;55824;52.220;21.040;2023-03-21T06:30:56;3.65;;;2.88;;
39882;SDS011;55824;52.220;21.040;2023-03-21T06:33:22;4.15;;;2.80;;
39882;SDS011;55824;52.220;21.040;2023-03-21T06:35:51;4.03;;;2.90;;
39882;SDS011;55824;52.220;21.040;2023-03-21T06:40:46;3.72;;;2.65;;
39882;SDS011;55824;52.220;21.040;2023-03-21T06:43:12;3.63;;;2.55;;
39882;SDS011;55824;52.220;21.040;2023-03-21T06:45:38;3.13;;;2.35;;
39882;SDS011;55824;52.220;21.040;2023-03-21T06:48:05;3.58;;;2.65;;
39882;SDS011;55824;52.220;21.040;2023-03-21T06:50:31;3.30;;;2.53;;
39882;SDS011;55824;52.220;21.040;2023-03-21T06:52:57;3.72;;;2.45;;
39882;SDS011;55824;52.220;21.040;2023-03-21T06:55:23;5.93;;;2.50;;
39882;SDS011;55824;52.220;21.040;2023-03-21T06:57:54;3.45;;;2.35;;
39882;SDS011;55824;52.220;21.040;2023-03-21T07:02:46;3.35;;;2.47;;
39882;SDS011;55824;52.220;21.040;2023-03-21T07:05:12;2.72;;;2.20;;
39882;SDS011;55824;52.220;21.040;2023-03-21T07:07:39;3.15;;;2.28;;
39882;SDS011;55824;52.220;21.040;2023-03-21T07:10:05;2.85;;;2.30;;
39882;SDS011;55824;52.220;21.040;2023-03-21T07:12:31;3.53;;;2.38;;
39882;SDS011;55824;52.220;21.040;2023-03-21T07:15:03;3.78;;;2.40;;
39882;SDS011;55824;52.220;21.040;2023-03-21T07:17:30;3.28;;;2.38;;
39882;SDS011;55824;52.220;21.040;2023-03-21T07:19:57;3.55;;;2.53;;
39882;SDS011;55824;52.220;21.040;2023-03-21T07:22:23;2.80;;;2.05;;
39882;SDS011;55824;52.220;21.040;2023-03-21T07:24:49;3.50;;;2.58;;
39882;SDS011;55824;52.220;21.040;2023-03-21T07:27:15;3.25;;;2.28;;
39882;SDS011;55824;52.220;21.040;2023-03-21T07:29:41;3.20;;;2.08;;
39882;SDS011;55824;52.220;21.040;2023-03-21T07:32:08;2.50;;;2.00;;
39882;SDS011;55824;52.220;21.040;2023-03-21T07:34:34;2.88;;;2.20;;
39882;SDS011;55824;52.220;21.040;2023-03-21T07:37:00;2.70;;;2.03;;
39882;SDS011;55824;52.220;21.040;2023-03-21T07:39:26;2.60;;;2.10;;
39882;SDS011;55824;52.220;21.040;2023-03-21T07:41:53;2.80;;;2.20;;
39882;SDS011;55824;52.220;21.040;2023-03-21T07:44:20;3.25;;;2.08;;
39882;SDS011;55824;52.220;21.040;2023-03-21T07:46:46;2.95;;;2.00;;
39882;SDS011;55824;52.220;21.040;2023-03-21T07:49:12;3.20;;;2.40;;
39882;SDS011;55824;52.220;21.040;2023-03-21T07:51:38;2.80;;;2.00;;
39882;SDS011;55824;52.220;21.040;2023-03-21T07:54:04;2.85;;;2.08;;
39882;SDS011;55824;52.220;21.040;2023-03-21T07:56:30;2.13;;;1.70;;
39882;SDS011;55824;52.220;21.040;2023-03-21T07:58:56;2.78;;;2.00;;
39882;SDS011;55824;52.220;21.040;2023-03-21T08:01:23;3.10;;;2.22;;
39882;SDS011;55824;52.220;21.040;2023-03-21T08:03:49;2.85;;;1.90;;
39882;SDS011;55824;52.220;21.040;2023-03-21T08:06:17;2.25;;;1.67;;
39882;SDS011;55824;52.220;21.040;2023-03-21T08:08:43;2.78;;;2.08;;
39882;SDS011;55824;52.220;21.040;2023-03-21T08:11:10;3.72;;;2.03;;
39882;SDS011;55824;52.220;21.040;2023-03-21T08:13:36;2.45;;;2.00;;
39882;SDS011;55824;52.220;21.040;2023-03-21T08:16:02;2.25;;;1.77;;
39882;SDS011;55824;52.220;21.040;2023-03-21T08:18:29;1.98;;;1.58;;
39882;SDS011;55824;52.220;21.040;2023-03-21T08:20:55;2.22;;;1.75;;
39882;SDS011;55824;52.220;21.040;2023-03-21T08:23:22;2.28;;;1.88;;
39882;SDS011;55824;52.220;21.040;2023-03-21T08:25:52;2.20;;;1.85;;
39882;SDS011;55824;52.220;21.040;2023-03-21T08:30:44;3.10;;;2.05;;
39882;SDS011;55824;52.220;21.040;2023-03-21T08:33:10;2.67;;;1.80;;
39882;SDS011;55824;52.220;21.040;2023-03-21T08:35:37;2.03;;;1.70;;
39882;SDS011;55824;52.220;21.040;2023-03-21T08:38:03;2.72;;;1.88;;
39882;SDS011;55824;52.220;21.040;2023-03-21T08:40:29;1.60;;;1.50;;
39882;SDS011;55824;52.220;21.040;2023-03-21T08:42:56;3.03;;;2.00;;
39882;SDS011;55824;52.220;21.040;2023-03-21T08:45:22;2.65;;;1.80;;
39882;SDS011;55824;52.220;21.040;2023-03-21T08:47:49;2.28;;;1.60;;
39882;SDS011;55824;52.220;21.040;2023-03-21T08:50:16;2.53;;;1.65;;
39882;SDS011;55824;52.220;21.040;2023-03-21T08:52:42;3.72;;;1.67;;
39882;SDS011;55824;52.220;21.040;2023-03-21T08:55:09;2.28;;;1.70;;
39882;SDS011;55824;52.220;21.040;2023-03-21T08:57:35;2.35;;;1.67;;
39882;SDS011;55824;52.220;21.040;2023-03-21T09:00:02;2.03;;;1.60;;
39882;SDS011;55824;52.220;21.040;2023-03-21T09:02:35;1.95;;;1.50;;
39882;SDS011;55824;52.220;21.040;2023-03-21T09:05:01;1.60;;;1.50;;
39882;SDS011;55824;52.220;21.040;2023-03-21T09:07:30;2.20;;;1.67;;
39882;SDS011;55824;52.220;21.040;2023-03-21T09:09:58;2.70;;;1.60;;
39882;SDS011;55824;52.220;21.040;2023-03-21T09:12:24;1.98;;;1.50;;
39882;SDS011;55824;52.220;21.040;2023-03-21T09:14:50;2.47;;;1.63;;
39882;SDS011;55824;52.220;21.040;2023-03-21T09:17:17;2.00;;;1.48;;
39882;SDS011;55824;52.220;21.040;2023-03-21T09:19:43;1.85;;;1.55;;
39882;SDS011;55824;52.220;21.040;2023-03-21T09:22:11;2.72;;;1.63;;
39882;SDS011;55824;52.220;21.040;2023-03-21T09:24:38;1.55;;;1.40;;
39882;SDS011;55824;52.220;21.040;2023-03-21T09:27:05;3.05;;;1.85;;
39882;SDS011;55824;52.220;21.040;2023-03-21T09:29:31;1.90;;;1.50;;
39882;SDS011;55824;52.220;21.040;2023-03-21T09:31:58;2.03;;;1.50;;
39882;SDS011;55824;52.220;21.040;2023-03-21T09:34:25;1.73;;;1.35;;
39882;SDS011;55824;52.220;21.040;2023-03-21T09:36:52;1.75;;;1.40;;
39882;SDS011;55824;52.220;21.040;2023-03-21T09:39:21;2.67;;;1.83;;
39882;SDS011;55824;52.220;21.040;2023-03-21T09:42:00;1.73;;;1.40;;
39882;SDS011;55824;52.220;21.040;2023-03-21T09:49:45;1.88;;;1.38;;
39882;SDS011;55824;52.220;21.040;2023-03-21T09:52:20;3.08;;;1.70;;
39882;SDS011;55824;52.220;21.040;2023-03-21T09:54:48;1.77;;;1.45;;
39882;SDS011;55824;52.220;21.040;2023-03-21T09:59:43;1.42;;;1.30;;
39882;SDS011;55824;52.220;21.040;2023-03-21T10:04:57;2.22;;;1.50;;
39882;SDS011;55824;52.220;21.040;2023-03-21T10:07:23;1.63;;;1.45;;
39882;SDS011;55824;52.220;21.040;2023-03-21T10:09:52;1.52;;;1.30;;
39882;SDS011;55824;52.220;21.040;2023-03-21T10:12:21;1.38;;;1.23;;
39882;SDS011;55824;52.220;21.040;2023-03-21T10:14:52;1.95;;;1.35;;
39882;SDS011;55824;52.220;21.040;2023-03-21T10:20:00;1.80;;;1.35;;
39882;SDS011;55824;52.220;21.040;2023-03-21T10:22:38;1.40;;;1.30;;
39882;SDS011;55824;52.220;21.040;2023-03-21T10:25:05;1.33;;;1.10;;
39882;SDS011;55824;52.220;21.040;2023-03-21T10:27:31;1.95;;;1.50;;
39882;SDS011;55824;52.220;21.040;2023-03-21T10:29:58;2.20;;;1.50;;
39882;SDS011;55824;52.220;21.040;2023-03-21T10:32:25;2.10;;;1.73;;
39882;SDS011;55824;52.220;21.040;2023-03-21T10:34:52;2.22;;;1.55;;
39882;SDS011;55824;52.220;21.040;2023-03-21T10:37:19;1.70;;;1.35;;
39882;SDS011;55824;52.220;21.040;2023-03-21T10:39:46;1.48;;;1.30;;
39882;SDS011;55824;52.220;21.040;2023-03-21T10:42:18;1.85;;;1.33;;
39882;SDS011;55824;52.220;21.040;2023-03-21T10:44:46;2.08;;;1.60;;
39882;SDS011;55824;52.220;21.040;2023-03-21T10:47:14;2.05;;;1.73;;
39882;SDS011;55824;52.220;21.040;2023-03-21T10:49:44;1.67;;;1.35;;
39882;SDS011;55824;52.220;21.040;2023-03-21T10:52:12;1.45;;;1.35;;
39882;SDS011;55824;52.220;21.040;2023-03-21T10:54:38;2.13;;;1.40;;
39882;SDS011;55824;52.220;21.040;2023-03-21T10:57:06;1.85;;;1.50;;
39882;SDS011;55824;52.220;21.040;2023-03-21T10:59:43;1.63;;;1.30;;
39882;SDS011;55824;52.220;21.040;2023-03-21T11:02:23;1.70;;;1.17;;
39882;SDS011;55824;52.220;21.040;2023-03-21T11:04:51;1.48;;;1.33;;
39882;SDS011;55824;52.220;21.040;2023-03-21T11:07:18;2.00;;;1.40;;
39882;SDS011;55824;52.220;21.040;2023-03-21T11:09:54;1.95;;;1.40;;
39882;SDS011;55824;52.220;21.040;2023-03-21T11:12:35;1.48;;;1.23;;
39882;SDS011;55824;52.220;21.040;2023-03-21T11:17:45;2.05;;;1.30;;
39882;SDS011;55824;52.220;21.040;2023-03-21T11:20:15;2.10;;;1.45;;
39882;SDS011;55824;52.220;21.040;2023-03-21T11:22:43;1.40;;;1.10;;
39882;SDS011;55824;52.220;21.040;2023-03-21T11:25:14;1.42;;;1.20;;
39882;SDS011;55824;52.220;21.040;2023-03-21T11:27:51;1.67;;;1.20;;
39882;SDS011;55824;52.220;21.040;2023-03-21T11:30:22;2.22;;;1.40;;
39882;SDS011;55824;52.220;21.040;2023-03-21T11:33:00;1.20;;;1.10;;
39882;SDS011;55824;52.220;21.040;2023-03-21T11:35:34;1.50;;;1.10;;
39882;SDS011;55824;52.220;21.040;2023-03-21T11:38:00;1.50;;;1.23;;
39882;SDS011;55824;52.220;21.040;2023-03-21T11:40:35;1.80;;;1.30;;
39882;SDS011;55824;52.220;21.040;2023-03-21T11:45:35;1.48;;;1.20;;
39882;SDS011;55824;52.220;21.040;2023-03-21T11:48:06;1.60;;;1.30;;
39882;SDS011;55824;52.220;21.040;2023-03-21T11:50:34;2.53;;;1.63;;
39882;SDS011;55824;52.220;21.040;2023-03-21T12:06:11;1.83;;;1.20;;
39882;SDS011;55824;52.220;21.040;2023-03-21T12:19:09;1.42;;;1.20;;
39882;SDS011;55824;52.220;21.040;2023-03-21T12:24:14;1.30;;;1.20;;
39882;SDS011;55824;52.220;21.040;2023-03-21T12:39:34;1.75;;;1.42;;
39882;SDS011;55824;52.220;21.040;2023-03-21T12:44:33;2.38;;;1.55;;
39882;SDS011;55824;52.220;21.040;2023-03-21T12:47:01;1.77;;;1.45;;
39882;SDS011;55824;52.220;21.040;2023-03-21T12:49:32;1.83;;;1.15;;
39882;SDS011;55824;52.220;21.040;2023-03-21T12:52:13;2.03;;;1.38;;
39882;SDS011;55824;52.220;21.040;2023-03-21T12:54:43;1.48;;;1.23;;
39882;SDS011;55824;52.220;21.040;2023-03-21T12:57:16;1.08;;;0.98;;
39882;SDS011;55824;52.220;21.040;2023-03-21T12:59:59;1.65;;;1.27;;
39882;SDS011;55824;52.220;21.040;2023-03-21T13:02:39;0.88;;;0.88;;
39882;SDS011;55824;52.220;21.040;2023-03-21T13:05:26;1.77;;;1.42;;
39882;SDS011;55824;52.220;21.040;2023-03-21T13:07:55;2.42;;;1.45;;
39882;SDS011;55824;52.220;21.040;2023-03-21T13:10:22;1.58;;;1.20;;
39882;SDS011;55824;52.220;21.040;2023-03-21T13:23:10;2.15;;;1.52;;
39882;SDS011;55824;52.220;21.040;2023-03-21T13:25:41;1.73;;;1.40;;
39882;SDS011;55824;52.220;21.040;2023-03-21T13:28:11;1.38;;;1.25;;
39882;SDS011;55824;52.220;21.040;2023-03-21T13:30:40;1.58;;;1.40;;
39882;SDS011;55824;52.220;21.040;2023-03-21T13:33:09;1.38;;;1.20;;
39882;SDS011;55824;52.220;21.040;2023-03-21T13:35:37;1.65;;;1.20;;
39882;SDS011;55824;52.220;21.040;2023-03-21T13:38:15;1.77;;;1.20;;
39882;SDS011;55824;52.220;21.040;2023-03-21T13:40:44;2.33;;;1.42;;
39882;SDS011;55824;52.220;21.040;2023-03-21T13:45:55;2.45;;;1.67;;
39882;SDS011;55824;52.220;21.040;2023-03-21T13:48:24;2.00;;;1.52;;
39882;SDS011;55824;52.220;21.040;2023-03-21T13:50:52;2.55;;;1.63;;
39882;SDS011;55824;52.220;21.040;2023-03-21T13:53:24;2.20;;;1.35;;
39882;SDS011;55824;52.220;21.040;2023-03-21T13:58:49;1.85;;;1.30;;
39882;SDS011;55824;52.220;21.040;2023-03-21T14:06:42;1.75;;;1.40;;
39882;SDS011;55824;52.220;21.040;2023-03-21T14:09:11;2.03;;;1.27;;
39882;SDS011;55824;52.220;21.040;2023-03-21T14:11:41;2.45;;;1.52;;
39882;SDS011;55824;52.220;21.040;2023-03-21T14:14:07;1.85;;;1.40;;
39882;SDS011;55824;52.220;21.040;2023-03-21T14:16:34;1.70;;;1.50;;
39882;SDS011;55824;52.220;21.040;2023-03-21T14:19:01;2.15;;;1.63;;
39882;SDS011;55824;52.220;21.040;2023-03-21T14:21:29;1.73;;;1.20;;
39882;SDS011;55824;52.220;21.040;2023-03-21T14:24:00;2.58;;;1.45;;
39882;SDS011;55824;52.220;21.040;2023-03-21T14:26:28;2.17;;;1.27;;
39882;SDS011;55824;52.220;21.040;2023-03-21T14:28:55;2.08;;;1.42;;
39882;SDS011;55824;52.220;21.040;2023-03-21T14:31:21;2.17;;;1.45;;
39882;SDS011;55824;52.220;21.040;2023-03-21T14:33:51;2.00;;;1.45;;
39882;SDS011;55824;52.220;21.040;2023-03-21T14:36:19;2.42;;;1.55;;
39882;SDS011;55824;52.220;21.040;2023-03-21T14:38:56;2.78;;;1.40;;
39882;SDS011;55824;52.220;21.040;2023-03-21T14:41:27;2.20;;;1.50;;
39882;SDS011;55824;52.220;21.040;2023-03-21T14:44:00;1.40;;;1.30;;
39882;SDS011;55824;52.220;21.040;2023-03-21T14:46:26;2.60;;;1.65;;
39882;SDS011;55824;52.220;21.040;2023-03-21T14:48:52;2.83;;;1.58;;
39882;SDS011;55824;52.220;21.040;2023-03-21T14:51:18;2.35;;;1.60;;
39882;SDS011;55824;52.220;21.040;2023-03-21T14:53:44;1.60;;;1.20;;
39882;SDS011;55824;52.220;21.040;2023-03-21T14:56:19;2.33;;;1.55;;
39882;SDS011;55824;52.220;21.040;2023-03-21T14:58:47;2.70;;;1.45;;
39882;SDS011;55824;52.220;21.040;2023-03-21T15:01:20;2.10;;;1.50;;
39882;SDS011;55824;52.220;21.040;2023-03-21T15:03:49;2.08;;;1.48;;
39882;SDS011;55824;52.220;21.040;2023-03-21T15:06:16;1.40;;;1.20;;
39882;SDS011;55824;52.220;21.040;2023-03-21T15:11:37;1.73;;;1.50;;
39882;SDS011;55824;52.220;21.040;2023-03-21T15:14:04;1.42;;;1.20;;
39882;SDS011;55824;52.220;21.040;2023-03-21T15:16:31;2.30;;;1.40;;
39882;SDS011;55824;52.220;21.040;2023-03-21T15:18:58;1.75;;;1.30;;
39882;SDS011;55824;52.220;21.040;2023-03-21T15:21:25;1.27;;;1.10;;
39882;SDS011;55824;52.220;21.040;2023-03-21T15:23:55;1.20;;;1.10;;
39882;SDS011;55824;52.220;21.040;2023-03-21T15:26:23;1.73;;;1.20;;
39882;SDS011;55824;52.220;21.040;2023-03-21T15:28:54;1.65;;;1.35;;
39882;SDS011;55824;52.220;21.040;2023-03-21T15:31:21;1.45;;;1.35;;
39882;SDS011;55824;52.220;21.040;2023-03-21T15:33:48;1.67;;;1.33;;
39882;SDS011;55824;52.220;21.040;2023-03-21T15:36:48;2.88;;;1.33;;
39882;SDS011;55824;52.220;21.040;2023-03-21T15:39:07;2.35;;;1.30;;
39882;SDS011;55824;52.220;21.040;2023-03-21T15:41:33;1.50;;;1.05;;
39882;SDS011;55824;52.220;21.040;2023-03-21T15:54:15;2.25;;;1.40;;
39882;SDS011;55824;52.220;21.040;2023-03-21T15:56:43;2.67;;;1.20;;
39882;SDS011;55824;52.220;21.040;2023-03-21T15:59:15;1.90;;;1.42;;
39882;SDS011;55824;52.220;21.040;2023-03-21T16:01:44;1.25;;;1.10;;
39882;SDS011;55824;52.220;21.040;2023-03-21T16:04:10;1.40;;;1.30;;
39882;SDS011;55824;52.220;21.040;2023-03-21T16:06:37;1.73;;;1.20;;
39882;SDS011;55824;52.220;21.040;2023-03-21T16:09:12;1.35;;;1.20;;
39882;SDS011;55824;52.220;21.040;2023-03-21T16:14:13;1.30;;;1.10;;
39882;SDS011;55824;52.220;21.040;2023-03-21T16:16:39;1.77;;;1.30;;
39882;SDS011;55824;52.220;21.040;2023-03-21T16:19:05;1.50;;;1.27;;
39882;SDS011;55824;52.220;21.040;2023-03-21T16:21:31;1.48;;;1.17;;
39882;SDS011;55824;52.220;21.040;2023-03-21T16:23:58;2.00;;;1.40;;
39882;SDS011;55824;52.220;21.040;2023-03-21T16:26:26;1.90;;;1.40;;
39882;SDS011;55824;52.220;21.040;2023-03-21T16:28:53;1.95;;;1.30;;
39882;SDS011;55824;52.220;21.040;2023-03-21T16:31:20;2.42;;;1.30;;
39882;SDS011;55824;52.220;21.040;2023-03-21T16:33:47;1.20;;;1.10;;
39882;SDS011;55824;52.220;21.040;2023-03-21T16:36:14;1.45;;;1.20;;
39882;SDS011;55824;52.220;21.040;2023-03-21T16:38:44;1.50;;;1.30;;
39882;SDS011;55824;52.220;21.040;2023-03-21T16:41:11;2.15;;;1.40;;
39882;SDS011;55824;52.220;21.040;2023-03-21T16:43:38;1.75;;;1.30;;
39882;SDS011;55824;52.220;21.040;2023-03-21T16:46:10;1.15;;;1.05;;
39882;SDS011;55824;52.220;21.040;2023-03-21T16:48:37;2.28;;;1.38;;